Time;durP1;ratioP1;P1;durP2;ratioP2;P2;SDS_P1;SDS_P2;PMS_P1;PMS_P2;Temp;Humidity;BMP_temperature;BMP_pressure;BME280_temperature;BME280_humidity;BME280_pressure;Samples;Min_cycle;Max_cycle;Signal;HPM_P1;HPM_P2
2023/04/23 00:00:03;;;;;;;24.33;12.20;;;;;;;;;;5130269;27;20505;-66
2023/04/23 00:02:30;;;;;;;25.55;12.68;;;;;;;;;;5130188;27;20047;-65
2023/04/23 00:04:58;;;;;;;26.00;13.25;;;;;;;;;;5129233;27;20039;-65
2023/04/23 00:07:27;;;;;;;29.48;13.68;;;;;;;;;;5130189;27;20064;-66
2023/04/23 00:09:58;;;;;;;32.08;14.95;;;;;;;;;;5129047;27;20147;-66
2023/04/23 00:12:25;;;;;;;30.27;14.20;;;;;;;;;;5110761;27;20055;-65
2023/04/23 00:14:53;;;;;;;34.78;14.27;;;;;;;;;;5127458;27;20112;-66
2023/04/23 00:17:20;;;;;;;37.55;15.80;;;;;;;;;;5110928;27;20125;-66
2023/04/23 00:19:47;;;;;;;38.92;15.35;;;;;;;;;;5128903;27;20039;-65
2023/04/23 00:22:15;;;;;;;35.47;15.25;;;;;;;;;;5111840;27;20444;-66
2023/04/23 00:24:43;;;;;;;36.13;15.48;;;;;;;;;;5129288;27;20051;-66
2023/04/23 00:27:11;;;;;;;35.03;15.07;;;;;;;;;;5130396;27;20054;-65
2023/04/23 00:29:42;;;;;;;33.65;14.57;;;;;;;;;;5125948;27;20055;-66
2023/04/23 00:32:09;;;;;;;36.67;15.70;;;;;;;;;;5104734;28;20055;-66
2023/04/23 00:34:36;;;;;;;38.53;16.10;;;;;;;;;;5126136;27;20046;-65
2023/04/23 00:37:05;;;;;;;36.78;15.27;;;;;;;;;;5129321;27;20051;-66
2023/04/23 00:39:32;;;;;;;38.40;15.43;;;;;;;;;;5105982;27;20376;-65
2023/04/23 00:42:05;;;;;;;40.25;15.40;;;;;;;;;;5124248;27;20525;-65
2023/04/23 00:44:34;;;;;;;30.40;14.57;;;;;;;;;;5121831;27;20043;-65
2023/04/23 00:47:02;;;;;;;36.80;15.52;;;;;;;;;;5123060;27;20051;-66
2023/04/23 00:49:30;;;;;;;34.28;15.55;;;;;;;;;;5126402;27;20553;-65
2023/04/23 00:51:57;;;;;;;33.05;13.98;;;;;;;;;;5128975;27;20043;-66
2023/04/23 00:54:24;;;;;;;29.08;13.82;;;;;;;;;;5130251;27;20044;-65
2023/04/23 00:56:52;;;;;;;28.42;12.23;;;;;;;;;;5125545;27;20039;-65
2023/04/23 00:59:20;;;;;;;27.10;12.55;;;;;;;;;;5129835;27;20051;-66
2023/04/23 01:01:48;;;;;;;26.35;11.88;;;;;;;;;;5122655;27;20035;-66
2023/04/23 01:04:17;;;;;;;24.73;11.77;;;;;;;;;;5128307;27;20039;-65
2023/04/23 01:06:45;;;;;;;33.30;14.05;;;;;;;;;;5127712;27;20043;-66
2023/04/23 01:09:13;;;;;;;32.42;12.43;;;;;;;;;;5124112;27;20058;-66
2023/04/23 01:11:43;;;;;;;33.53;13.20;;;;;;;;;;5128970;27;20451;-66
2023/04/23 01:14:10;;;;;;;28.73;12.13;;;;;;;;;;5125677;27;20039;-65
2023/04/23 01:16:38;;;;;;;35.10;14.13;;;;;;;;;;5126742;27;20082;-66
2023/04/23 01:19:07;;;;;;;26.10;12.00;;;;;;;;;;5126543;27;20058;-66
2023/04/23 01:21:35;;;;;;;27.27;11.80;;;;;;;;;;5129378;27;20059;-66
2023/04/23 01:24:04;;;;;;;28.73;12.88;;;;;;;;;;5127936;27;20516;-66
2023/04/23 01:26:32;;;;;;;25.90;11.45;;;;;;;;;;5128996;27;20054;-66
2023/04/23 01:28:59;;;;;;;30.65;13.15;;;;;;;;;;5108809;27;20054;-66
2023/04/23 01:31:27;;;;;;;31.52;12.65;;;;;;;;;;5127777;27;20112;-65
2023/04/23 01:33:55;;;;;;;35.25;13.63;;;;;;;;;;5109388;27;20135;-65
2023/04/23 01:36:22;;;;;;;28.92;12.70;;;;;;;;;;5128184;27;20055;-65
2023/04/23 01:38:50;;;;;;;36.42;14.65;;;;;;;;;;5126407;27;20039;-65
2023/04/23 01:41:19;;;;;;;34.13;14.77;;;;;;;;;;5119299;27;20075;-65
2023/04/23 01:43:46;;;;;;;33.25;14.23;;;;;;;;;;5127278;27;20486;-66
2023/04/23 01:46:13;;;;;;;37.00;14.13;;;;;;;;;;5128590;27;21244;-66
2023/04/23 01:48:41;;;;;;;30.83;14.45;;;;;;;;;;5128171;27;20050;-65
2023/04/23 01:51:08;;;;;;;31.67;13.93;;;;;;;;;;5106795;27;20058;-66
2023/04/23 01:53:36;;;;;;;34.28;14.30;;;;;;;;;;5127307;27;20424;-66
2023/04/23 01:56:03;;;;;;;43.38;15.38;;;;;;;;;;5127208;27;20047;-66
2023/04/23 01:58:32;;;;;;;35.80;13.02;;;;;;;;;;5109815;27;20055;-65
2023/04/23 02:00:59;;;;;;;36.17;13.88;;;;;;;;;;5127395;27;20080;-65
2023/04/23 02:03:27;;;;;;;34.20;14.40;;;;;;;;;;5110086;27;20086;-66
2023/04/23 02:05:54;;;;;;;36.30;13.98;;;;;;;;;;5120722;27;20047;-66
2023/04/23 02:08:21;;;;;;;33.72;14.18;;;;;;;;;;5128202;27;20047;-66
2023/04/23 02:10:49;;;;;;;37.75;15.00;;;;;;;;;;5124025;27;20159;-65
2023/04/23 02:13:16;;;;;;;35.33;14.57;;;;;;;;;;5123584;27;20043;-65
2023/04/23 02:15:45;;;;;;;34.20;15.38;;;;;;;;;;5109490;28;20052;-65
2023/04/23 02:18:12;;;;;;;39.20;14.50;;;;;;;;;;5123317;27;20074;-66
2023/04/23 02:20:40;;;;;;;35.00;15.05;;;;;;;;;;5107486;28;20055;-65
2023/04/23 02:23:07;;;;;;;35.75;14.88;;;;;;;;;;5126679;27;20115;-65
2023/04/23 02:25:37;;;;;;;38.67;15.68;;;;;;;;;;5130845;27;20035;-66
2023/04/23 02:28:06;;;;;;;35.50;14.80;;;;;;;;;;5124583;27;20545;-66
2023/04/23 02:30:33;;;;;;;39.25;16.58;;;;;;;;;;5114052;27;20058;-66
2023/04/23 02:33:02;;;;;;;40.80;15.40;;;;;;;;;;5129182;27;20038;-66
2023/04/23 02:35:30;;;;;;;42.63;15.52;;;;;;;;;;5132653;27;20046;-65
2023/04/23 02:37:57;;;;;;;41.75;15.82;;;;;;;;;;5130436;27;20050;-65
2023/04/23 02:40:24;;;;;;;37.47;15.23;;;;;;;;;;5128451;27;20397;-65
2023/04/23 02:42:52;;;;;;;37.70;15.20;;;;;;;;;;5129734;27;20486;-66
2023/04/23 02:45:19;;;;;;;32.92;14.38;;;;;;;;;;5112631;27;20063;-65
2023/04/23 02:47:46;;;;;;;34.55;14.48;;;;;;;;;;5132330;27;20057;-65
2023/04/23 02:50:15;;;;;;;36.83;15.30;;;;;;;;;;5128638;27;20051;-66
2023/04/23 02:52:42;;;;;;;44.80;15.68;;;;;;;;;;5124635;27;20050;-66
2023/04/23 02:55:10;;;;;;;55.45;19.70;;;;;;;;;;5130629;27;20108;-65
2023/04/23 02:57:38;;;;;;;62.97;20.02;;;;;;;;;;5127575;27;20039;-65
2023/04/23 03:00:06;;;;;;;68.93;19.85;;;;;;;;;;5131712;27;20325;-65
2023/04/23 03:02:34;;;;;;;66.97;21.75;;;;;;;;;;5125239;27;20459;-65
2023/04/23 03:05:01;;;;;;;81.88;21.52;;;;;;;;;;5129706;27;20039;-65
2023/04/23 03:07:30;;;;;;;84.90;21.90;;;;;;;;;;5129877;27;20043;-65
2023/04/23 03:09:57;;;;;;;71.75;22.95;;;;;;;;;;5126660;27;20043;-66
2023/04/23 03:12:25;;;;;;;96.90;19.58;;;;;;;;;;5129639;27;20054;-66
2023/04/23 03:14:52;;;;;;;84.13;19.90;;;;;;;;;;5127749;27;20043;-65
2023/04/23 03:17:19;;;;;;;89.65;21.67;;;;;;;;;;5129173;27;20553;-65
2023/04/23 03:19:46;;;;;;;63.13;20.95;;;;;;;;;;5131463;27;20047;-65
2023/04/23 03:22:14;;;;;;;111.90;20.77;;;;;;;;;;5130440;27;20526;-65
2023/04/23 03:24:42;;;;;;;66.78;21.45;;;;;;;;;;5129569;27;20071;-66
2023/04/23 03:27:09;;;;;;;72.93;23.70;;;;;;;;;;5131966;27;20050;-65
2023/04/23 03:29:37;;;;;;;79.55;24.92;;;;;;;;;;5111651;27;20178;-65
2023/04/23 03:32:04;;;;;;;100.63;22.70;;;;;;;;;;5131717;27;20490;-65
2023/04/23 03:34:31;;;;;;;113.90;25.15;;;;;;;;;;5130623;27;20643;-66
2023/04/23 03:36:59;;;;;;;96.35;25.05;;;;;;;;;;5112084;27;20498;-66
2023/04/23 03:39:26;;;;;;;103.97;26.25;;;;;;;;;;5128196;27;20047;-66
2023/04/23 03:41:54;;;;;;;90.97;25.17;;;;;;;;;;5130955;27;20414;-66
2023/04/23 03:44:22;;;;;;;100.78;24.77;;;;;;;;;;5130146;27;20043;-65
2023/04/23 03:46:51;;;;;;;100.10;25.23;;;;;;;;;;5131215;27;20519;-66
2023/04/23 03:49:18;;;;;;;119.85;26.60;;;;;;;;;;5112114;27;20061;-66
2023/04/23 03:51:45;;;;;;;99.60;26.38;;;;;;;;;;5110801;27;20050;-65
2023/04/23 03:54:12;;;;;;;86.88;25.67;;;;;;;;;;5111731;27;20418;-65
2023/04/23 03:56:40;;;;;;;91.70;24.95;;;;;;;;;;5130123;27;20055;-65
2023/04/23 03:59:08;;;;;;;108.35;26.80;;;;;;;;;;5108521;27;20299;-66
2023/04/23 04:01:36;;;;;;;98.80;27.85;;;;;;;;;;5131699;27;20057;-65
2023/04/23 04:04:03;;;;;;;98.53;28.00;;;;;;;;;;5128601;27;20058;-66
2023/04/23 04:06:30;;;;;;;115.07;29.20;;;;;;;;;;5126694;27;20047;-65
2023/04/23 04:08:57;;;;;;;107.68;29.60;;;;;;;;;;5105655;28;20080;-65
2023/04/23 04:11:25;;;;;;;127.05;29.92;;;;;;;;;;5108999;28;20465;-65
2023/04/23 04:13:52;;;;;;;126.65;30.13;;;;;;;;;;5105089;28;20058;-65
2023/04/23 04:16:20;;;;;;;111.03;30.02;;;;;;;;;;5100848;28;20498;-66
2023/04/23 04:18:48;;;;;;;112.70;29.67;;;;;;;;;;5101192;28;20056;-65
2023/04/23 04:21:16;;;;;;;109.75;30.02;;;;;;;;;;5109108;28;20074;-66
2023/04/23 04:23:43;;;;;;;104.35;29.40;;;;;;;;;;5103964;28;20403;-67
2023/04/23 04:26:10;;;;;;;122.20;31.40;;;;;;;;;;5107526;28;20066;-65
2023/04/23 04:28:38;;;;;;;114.82;30.58;;;;;;;;;;5102755;28;20450;-65
2023/04/23 04:31:07;;;;;;;102.32;30.60;;;;;;;;;;5108552;28;20567;-66
2023/04/23 04:33:38;;;;;;;100.95;30.15;;;;;;;;;;5109580;28;20487;-65
2023/04/23 04:36:07;;;;;;;109.00;31.17;;;;;;;;;;5105353;28;20044;-65
2023/04/23 04:38:36;;;;;;;121.10;32.03;;;;;;;;;;5102680;28;20379;-66
2023/04/23 04:41:04;;;;;;;119.55;31.98;;;;;;;;;;5107284;28;20058;-65
2023/04/23 04:43:31;;;;;;;127.57;31.15;;;;;;;;;;5107334;28;20130;-65
2023/04/23 04:45:59;;;;;;;128.10;32.83;;;;;;;;;;5106424;28;20048;-65
2023/04/23 04:48:26;;;;;;;134.90;33.72;;;;;;;;;;5107292;28;20490;-65
2023/04/23 04:50:55;;;;;;;126.07;33.83;;;;;;;;;;5106193;28;20066;-66
2023/04/23 04:53:22;;;;;;;126.07;32.15;;;;;;;;;;5104812;28;20053;-65
2023/04/23 04:55:50;;;;;;;125.93;32.88;;;;;;;;;;5106292;28;20055;-66
2023/04/23 04:58:17;;;;;;;143.50;35.38;;;;;;;;;;5107947;28;20040;-66
2023/04/23 05:00:45;;;;;;;139.77;33.58;;;;;;;;;;5105452;28;20051;-66
2023/04/23 05:03:12;;;;;;;138.57;34.53;;;;;;;;;;5109099;28;20616;-65
2023/04/23 05:05:39;;;;;;;126.00;32.58;;;;;;;;;;5106254;28;20418;-65
2023/04/23 05:08:08;;;;;;;122.55;32.92;;;;;;;;;;5108442;27;20071;-66
2023/04/23 05:10:35;;;;;;;128.43;34.20;;;;;;;;;;5104423;27;20046;-66
2023/04/23 05:13:06;;;;;;;114.85;31.80;;;;;;;;;;5120306;27;20058;-66
2023/04/23 05:15:33;;;;;;;120.95;31.45;;;;;;;;;;5120616;27;20492;-65
2023/04/23 05:18:00;;;;;;;115.30;32.15;;;;;;;;;;5118007;27;20122;-65
2023/04/23 05:20:28;;;;;;;114.35;31.23;;;;;;;;;;5119242;27;20054;-65
2023/04/23 05:22:55;;;;;;;110.00;30.65;;;;;;;;;;5116053;27;20355;-66
2023/04/23 05:25:24;;;;;;;105.35;30.30;;;;;;;;;;5109941;27;20500;-65
2023/04/23 05:27:51;;;;;;;120.70;31.40;;;;;;;;;;5121746;27;20062;-65
2023/04/23 05:30:18;;;;;;;107.47;30.42;;;;;;;;;;5127185;27;20421;-65
2023/04/23 05:32:46;;;;;;;107.22;29.58;;;;;;;;;;5118561;27;20047;-66
2023/04/23 05:35:13;;;;;;;108.90;30.42;;;;;;;;;;5119187;27;20166;-65
2023/04/23 05:37:40;;;;;;;100.78;30.48;;;;;;;;;;5119684;27;20039;-66
2023/04/23 05:40:08;;;;;;;90.35;29.40;;;;;;;;;;5107909;27;20058;-66
2023/04/23 05:42:37;;;;;;;92.03;29.85;;;;;;;;;;5113498;27;20502;-66
2023/04/23 05:45:05;;;;;;;78.97;27.75;;;;;;;;;;5116097;27;20059;-65
2023/04/23 05:47:32;;;;;;;82.10;29.58;;;;;;;;;;5117120;27;20043;-66
2023/04/23 05:50:00;;;;;;;76.28;26.50;;;;;;;;;;5117580;27;20059;-66
2023/04/23 05:52:30;;;;;;;67.07;27.50;;;;;;;;;;5111779;27;20043;-66
2023/04/23 05:54:57;;;;;;;63.92;24.95;;;;;;;;;;5119586;27;20086;-66
2023/04/23 05:57:25;;;;;;;64.30;24.85;;;;;;;;;;5114656;27;20051;-66
2023/04/23 05:59:53;;;;;;;64.05;23.02;;;;;;;;;;5110292;27;20043;-66
2023/04/23 06:02:21;;;;;;;65.57;24.08;;;;;;;;;;5115261;27;20490;-66
2023/04/23 06:04:48;;;;;;;68.97;25.05;;;;;;;;;;5112249;28;20075;-66
2023/04/23 06:07:15;;;;;;;59.40;23.55;;;;;;;;;;5112675;28;20039;-66
2023/04/23 06:09:42;;;;;;;63.17;25.00;;;;;;;;;;5123970;27;20047;-66
2023/04/23 06:12:10;;;;;;;65.40;25.15;;;;;;;;;;5126121;27;20047;-66
2023/04/23 06:14:37;;;;;;;61.55;24.45;;;;;;;;;;5126144;27;20049;-66
2023/04/23 06:17:06;;;;;;;51.75;22.10;;;;;;;;;;5128230;27;20394;-66
2023/04/23 06:19:33;;;;;;;55.30;23.17;;;;;;;;;;5126558;27;20079;-67
2023/04/23 06:22:00;;;;;;;48.88;22.60;;;;;;;;;;5125323;27;20066;-66
2023/04/23 06:24:28;;;;;;;47.88;21.10;;;;;;;;;;5124458;27;20055;-66
2023/04/23 06:26:55;;;;;;;46.38;22.77;;;;;;;;;;5127826;27;20047;-66
2023/04/23 06:29:22;;;;;;;45.95;21.90;;;;;;;;;;5104974;27;20051;-66
2023/04/23 06:31:49;;;;;;;53.72;23.35;;;;;;;;;;5109025;28;20054;-66
2023/04/23 06:34:18;;;;;;;51.38;22.17;;;;;;;;;;5127765;27;20043;-66
2023/04/23 06:36:45;;;;;;;49.92;22.50;;;;;;;;;;5127395;27;20039;-66
2023/04/23 06:39:12;;;;;;;43.38;21.23;;;;;;;;;;5120859;27;20520;-66
2023/04/23 06:41:40;;;;;;;47.40;22.08;;;;;;;;;;5105777;28;20047;-66
2023/04/23 06:44:07;;;;;;;46.38;21.55;;;;;;;;;;5128970;27;20050;-66
2023/04/23 06:46:34;;;;;;;46.75;21.67;;;;;;;;;;5126681;27;20414;-66
2023/04/23 06:49:01;;;;;;;49.95;21.45;;;;;;;;;;5127812;27;20048;-66
2023/04/23 06:51:30;;;;;;;46.88;21.55;;;;;;;;;;5123567;27;20288;-66
2023/04/23 06:53:58;;;;;;;43.28;19.33;;;;;;;;;;5127434;27;20092;-66
2023/04/23 06:56:25;;;;;;;46.53;21.13;;;;;;;;;;5125428;27;20144;-67
2023/04/23 06:58:53;;;;;;;44.78;20.27;;;;;;;;;;5106264;28;20048;-66
2023/04/23 07:01:20;;;;;;;42.53;20.27;;;;;;;;;;5128299;28;20043;-66
2023/04/23 07:03:48;;;;;;;45.80;21.42;;;;;;;;;;5127438;27;20050;-66
2023/04/23 07:06:15;;;;;;;45.83;20.65;;;;;;;;;;5127959;27;20111;-67
2023/04/23 07:08:44;;;;;;;43.30;21.15;;;;;;;;;;5127071;27;20391;-67
2023/04/23 07:11:12;;;;;;;44.95;21.25;;;;;;;;;;5126820;27;20134;-66
2023/04/23 07:13:39;;;;;;;43.28;20.90;;;;;;;;;;5131728;27;20136;-66
2023/04/23 07:16:07;;;;;;;51.25;21.42;;;;;;;;;;5130141;27;20062;-66
2023/04/23 07:18:34;;;;;;;46.25;21.38;;;;;;;;;;5131428;27;20051;-66
2023/04/23 07:21:01;;;;;;;45.28;20.27;;;;;;;;;;5128854;27;20498;-66
2023/04/23 07:23:29;;;;;;;46.60;22.40;;;;;;;;;;5109290;27;20143;-66
2023/04/23 07:25:58;;;;;;;46.17;21.85;;;;;;;;;;5111714;27;20054;-66
2023/04/23 07:28:25;;;;;;;47.50;23.08;;;;;;;;;;5110258;27;20151;-66
2023/04/23 07:30:52;;;;;;;43.40;20.77;;;;;;;;;;5109471;27;20055;-66
2023/04/23 07:33:20;;;;;;;44.03;20.58;;;;;;;;;;5130584;27;20374;-66
2023/04/23 07:35:47;;;;;;;44.15;19.85;;;;;;;;;;5127427;27;20055;-66
2023/04/23 07:38:14;;;;;;;41.08;20.55;;;;;;;;;;5128730;27;20053;-66
2023/04/23 07:40:42;;;;;;;37.60;19.20;;;;;;;;;;5122944;27;20043;-66
2023/04/23 07:43:10;;;;;;;42.75;21.15;;;;;;;;;;5130737;27;20051;-67
2023/04/23 07:45:38;;;;;;;45.67;20.25;;;;;;;;;;5124751;27;20047;-67
2023/04/23 07:48:05;;;;;;;44.17;19.27;;;;;;;;;;5104294;27;20410;-67
2023/04/23 07:50:32;;;;;;;38.33;19.80;;;;;;;;;;5119788;27;20040;-67
2023/04/23 07:53:00;;;;;;;35.05;18.55;;;;;;;;;;5128650;27;20047;-67
2023/04/23 07:55:27;;;;;;;34.35;17.58;;;;;;;;;;5130740;27;20050;-67
2023/04/23 07:57:54;;;;;;;33.78;18.23;;;;;;;;;;5110088;27;20047;-67
2023/04/23 08:00:23;;;;;;;33.65;17.85;;;;;;;;;;5128160;27;20039;-67
2023/04/23 08:02:51;;;;;;;38.03;19.38;;;;;;;;;;5112836;27;20135;-67
2023/04/23 08:05:18;;;;;;;35.40;18.33;;;;;;;;;;5127796;27;20043;-67
2023/04/23 08:07:45;;;;;;;32.33;16.55;;;;;;;;;;5130368;27;20043;-67
2023/04/23 08:10:12;;;;;;;35.90;17.58;;;;;;;;;;5128294;27;20047;-67
2023/04/23 08:12:40;;;;;;;26.65;15.02;;;;;;;;;;5130071;27;20428;-66
2023/04/23 08:15:07;;;;;;;30.45;16.23;;;;;;;;;;5128275;27;20051;-67
2023/04/23 08:17:36;;;;;;;30.00;15.38;;;;;;;;;;5130239;27;20051;-67
2023/04/23 08:20:05;;;;;;;33.35;16.25;;;;;;;;;;5128990;27;20390;-67
2023/04/23 08:22:32;;;;;;;28.00;15.25;;;;;;;;;;5112223;27;20051;-67
2023/04/23 08:25:00;;;;;;;24.58;14.20;;;;;;;;;;5129591;27;20649;-67
2023/04/23 08:27:27;;;;;;;28.45;15.65;;;;;;;;;;5130019;27;20134;-67
2023/04/23 08:29:54;;;;;;;25.90;14.57;;;;;;;;;;5128604;27;20079;-68
2023/04/23 08:32:22;;;;;;;24.42;13.85;;;;;;;;;;5130882;27;20047;-67
2023/04/23 08:34:50;;;;;;;28.40;14.48;;;;;;;;;;5108782;27;20048;-67
2023/04/23 08:37:17;;;;;;;24.52;13.75;;;;;;;;;;5128631;27;20051;-67
2023/04/23 08:39:45;;;;;;;25.35;13.63;;;;;;;;;;5119617;27;20058;-67
2023/04/23 08:42:19;;;;;;;22.23;12.98;;;;;;;;;;5110711;27;20058;-67
2023/04/23 08:44:47;;;;;;;20.27;12.00;;;;;;;;;;5129952;27;20065;-67
2023/04/23 08:47:18;;;;;;;23.00;12.95;;;;;;;;;;5125008;27;20401;-67
2023/04/23 08:49:47;;;;;;;22.40;12.35;;;;;;;;;;5126759;27;20052;-67
2023/04/23 08:52:18;;;;;;;18.73;12.13;;;;;;;;;;5120854;27;20046;-67
2023/04/23 08:54:47;;;;;;;21.13;12.60;;;;;;;;;;5129457;27;20039;-67
2023/04/23 08:57:14;;;;;;;22.95;12.05;;;;;;;;;;5129396;27;20055;-67
2023/04/23 08:59:42;;;;;;;20.35;11.52;;;;;;;;;;5108475;27;20047;-67
2023/04/23 09:02:09;;;;;;;17.92;11.13;;;;;;;;;;5119766;27;20058;-68
2023/04/23 09:04:37;;;;;;;13.88;8.43;;;;;;;;;;5106420;27;20082;-68
2023/04/23 09:07:06;;;;;;;13.50;8.40;;;;;;;;;;5120108;27;20046;-68
2023/04/23 09:09:35;;;;;;;12.23;7.65;;;;;;;;;;5121226;27;20502;-67
2023/04/23 09:12:02;;;;;;;11.05;7.10;;;;;;;;;;5122179;27;20055;-68
2023/04/23 09:14:30;;;;;;;13.70;7.30;;;;;;;;;;5125999;27;20047;-67
2023/04/23 09:16:57;;;;;;;11.93;7.18;;;;;;;;;;5124906;27;20434;-68
2023/04/23 09:19:26;;;;;;;11.65;7.22;;;;;;;;;;5116326;27;20051;-67
2023/04/23 09:21:54;;;;;;;12.38;7.20;;;;;;;;;;5099043;27;20478;-68
2023/04/23 09:24:23;;;;;;;10.80;6.72;;;;;;;;;;5122964;27;20078;-68
2023/04/23 09:26:53;;;;;;;11.93;7.30;;;;;;;;;;5128462;27;20484;-68
2023/04/23 09:29:22;;;;;;;12.10;6.35;;;;;;;;;;5128736;27;20699;-68
2023/04/23 09:31:50;;;;;;;10.85;6.22;;;;;;;;;;5111318;27;20394;-68
2023/04/23 09:34:18;;;;;;;10.30;6.47;;;;;;;;;;5127963;27;20486;-68
2023/04/23 09:36:45;;;;;;;10.23;5.90;;;;;;;;;;5129071;27;20039;-68
2023/04/23 09:39:13;;;;;;;10.23;6.03;;;;;;;;;;5126947;27;20058;-68
2023/04/23 09:41:40;;;;;;;10.35;5.93;;;;;;;;;;5128121;27;20060;-68
2023/04/23 09:44:11;;;;;;;9.60;5.93;;;;;;;;;;5108410;27;20137;-68
2023/04/23 09:46:39;;;;;;;11.52;6.78;;;;;;;;;;5121425;27;20047;-68
2023/04/23 09:49:07;;;;;;;13.20;6.90;;;;;;;;;;5122328;27;20044;-70
2023/04/23 09:51:37;;;;;;;10.07;6.43;;;;;;;;;;5118046;27;20048;-70
2023/04/23 09:54:05;;;;;;;9.75;6.07;;;;;;;;;;5116765;27;20044;-70
2023/04/23 09:56:33;;;;;;;10.63;6.88;;;;;;;;;;5121796;27;20054;-69
2023/04/23 09:59:00;;;;;;;9.15;6.28;;;;;;;;;;5119756;27;20051;-70
2023/04/23 10:01:32;;;;;;;11.38;6.57;;;;;;;;;;5124349;27;20061;-70
2023/04/23 10:03:59;;;;;;;13.20;6.25;;;;;;;;;;5099147;28;20066;-70
2023/04/23 10:06:30;;;;;;;11.20;6.05;;;;;;;;;;5123629;27;20049;-70
2023/04/23 10:08:57;;;;;;;11.57;6.28;;;;;;;;;;5124678;27;20058;-70
2023/04/23 10:11:25;;;;;;;9.23;5.25;;;;;;;;;;5126062;27;20039;-70
2023/04/23 10:13:55;;;;;;;8.82;6.03;;;;;;;;;;5127598;27;20147;-71
2023/04/23 10:16:23;;;;;;;10.05;6.43;;;;;;;;;;5124129;27;20058;-70
2023/04/23 10:18:54;;;;;;;9.25;5.68;;;;;;;;;;5111123;27;20413;-70
2023/04/23 10:21:23;;;;;;;10.50;6.07;;;;;;;;;;5121471;27;20047;-70
2023/04/23 10:23:52;;;;;;;8.57;5.20;;;;;;;;;;5108450;27;20058;-70
2023/04/23 10:26:20;;;;;;;8.68;5.68;;;;;;;;;;5125905;27;20506;-70
2023/04/23 10:28:48;;;;;;;8.43;5.43;;;;;;;;;;5128455;27;20040;-70
2023/04/23 10:31:16;;;;;;;7.32;4.20;;;;;;;;;;5126491;27;20543;-70
2023/04/23 10:33:43;;;;;;;5.90;3.17;;;;;;;;;;5126828;27;20054;-70
2023/04/23 10:36:12;;;;;;;4.85;3.22;;;;;;;;;;5124735;27;20052;-70
2023/04/23 10:38:40;;;;;;;7.78;3.75;;;;;;;;;;5123166;27;20051;-70
2023/04/23 10:41:09;;;;;;;6.38;3.80;;;;;;;;;;5127319;27;20368;-70
2023/04/23 10:43:36;;;;;;;5.35;2.60;;;;;;;;;;5127283;27;20054;-70
2023/04/23 10:46:04;;;;;;;5.07;2.30;;;;;;;;;;5129465;27;20453;-72
2023/04/23 10:48:51;;;;;;;4.45;2.75;;;;;;;;;;5132303;27;20115;-71
2023/04/23 10:51:19;;;;;;;6.03;2.88;;;;;;;;;;5128714;27;20047;-71
2023/04/23 10:53:47;;;;;;;3.40;2.30;;;;;;;;;;5129539;27;20047;-70
2023/04/23 10:56:16;;;;;;;4.63;2.15;;;;;;;;;;5129542;27;20470;-70
2023/04/23 10:58:49;;;;;;;3.45;2.13;;;;;;;;;;5129668;27;20118;-70
2023/04/23 11:01:17;;;;;;;4.55;2.63;;;;;;;;;;5125973;27;20054;-70
2023/04/23 11:03:46;;;;;;;4.70;2.45;;;;;;;;;;5110534;27;20059;-70
2023/04/23 11:06:15;;;;;;;5.72;2.15;;;;;;;;;;5112468;27;20059;-70
2023/04/23 11:08:53;;;;;;;5.03;2.35;;;;;;;;;;5129392;27;20051;-70
2023/04/23 11:11:25;;;;;;;6.68;2.45;;;;;;;;;;5132478;27;20043;-70
2023/04/23 11:13:53;;;;;;;3.72;1.85;;;;;;;;;;5130173;27;20059;-70
2023/04/23 11:16:24;;;;;;;4.85;1.88;;;;;;;;;;5130400;27;20136;-70
2023/04/23 11:19:06;;;;;;;4.35;2.05;;;;;;;;;;5123452;27;20043;-70
2023/04/23 11:21:52;;;;;;;4.25;1.70;;;;;;;;;;5128798;27;20055;-70
2023/04/23 11:24:22;;;;;;;4.38;1.83;;;;;;;;;;5112396;27;20051;-70
2023/04/23 11:26:52;;;;;;;7.68;2.20;;;;;;;;;;5128603;27;20054;-70
2023/04/23 11:29:21;;;;;;;3.83;1.60;;;;;;;;;;5129338;27;20047;-70
2023/04/23 11:31:49;;;;;;;5.78;1.75;;;;;;;;;;5130286;27;20051;-71
2023/04/23 11:34:16;;;;;;;4.53;1.58;;;;;;;;;;5129814;27;20051;-71
2023/04/23 11:36:43;;;;;;;4.95;1.38;;;;;;;;;;5130458;27;20550;-70
2023/04/23 11:39:12;;;;;;;5.18;1.40;;;;;;;;;;5109409;27;20122;-70
2023/04/23 11:41:42;;;;;;;2.72;1.20;;;;;;;;;;5127643;27;20079;-71
2023/04/23 11:44:10;;;;;;;3.55;1.40;;;;;;;;;;5129901;27;20047;-70
2023/04/23 11:46:37;;;;;;;3.38;1.20;;;;;;;;;;5129272;27;20202;-71
2023/04/23 11:49:05;;;;;;;3.15;1.10;;;;;;;;;;5124185;27;20048;-71
2023/04/23 11:51:32;;;;;;;2.75;1.40;;;;;;;;;;5130610;27;20062;-71
2023/04/23 11:54:03;;;;;;;3.33;1.20;;;;;;;;;;5112432;27;20097;-70
2023/04/23 11:56:31;;;;;;;2.67;1.35;;;;;;;;;;5128673;27;20051;-71
2023/04/23 11:59:03;;;;;;;3.40;1.20;;;;;;;;;;5126340;27;20042;-70
2023/04/23 12:01:42;;;;;;;3.45;1.50;;;;;;;;;;5131730;27;20043;-70
2023/04/23 12:04:10;;;;;;;3.60;1.48;;;;;;;;;;5128580;27;20047;-70
2023/04/23 12:06:38;;;;;;;3.78;1.63;;;;;;;;;;5130179;27;20195;-70
2023/04/23 12:09:05;;;;;;;5.70;1.70;;;;;;;;;;5129271;27;20043;-70
2023/04/23 12:11:32;;;;;;;3.53;1.45;;;;;;;;;;5129833;27;20123;-71
2023/04/23 12:14:00;;;;;;;3.17;1.40;;;;;;;;;;5128037;27;20077;-71
2023/04/23 12:16:36;;;;;;;2.35;1.20;;;;;;;;;;5131358;27;20122;-72
2023/04/23 12:19:03;;;;;;;2.22;1.13;;;;;;;;;;5128960;27;20043;-72
2023/04/23 12:21:31;;;;;;;3.58;1.50;;;;;;;;;;5130290;27;20375;-71
2023/04/23 12:23:59;;;;;;;1.73;1.00;;;;;;;;;;5127172;27;20131;-71
2023/04/23 12:26:28;;;;;;;2.20;1.10;;;;;;;;;;5129503;27;20043;-71
2023/04/23 12:28:57;;;;;;;3.35;1.30;;;;;;;;;;5108949;27;20047;-71
2023/04/23 12:31:26;;;;;;;4.05;1.40;;;;;;;;;;5129472;27;20043;-71
2023/04/23 12:34:04;;;;;;;2.83;0.85;;;;;;;;;;5126656;27;20069;-72
2023/04/23 12:36:32;;;;;;;3.15;1.10;;;;;;;;;;5129711;27;20050;-71
2023/04/23 12:39:18;;;;;;;4.43;1.13;;;;;;;;;;5107034;27;20402;-72
2023/04/23 12:41:45;;;;;;;1.75;0.93;;;;;;;;;;5129702;27;20043;-72
2023/04/23 12:44:12;;;;;;;4.63;1.10;;;;;;;;;;5122584;27;20055;-72
2023/04/23 12:46:40;;;;;;;3.45;0.80;;;;;;;;;;5129897;27;20054;-72
2023/04/23 12:49:08;;;;;;;3.03;0.98;;;;;;;;;;5111450;27;20100;-72
2023/04/23 12:51:36;;;;;;;3.22;1.13;;;;;;;;;;5124244;27;20069;-72
2023/04/23 12:54:03;;;;;;;2.08;0.90;;;;;;;;;;5129233;27;20244;-72
2023/04/23 12:56:30;;;;;;;4.18;0.85;;;;;;;;;;5128222;27;20055;-73
2023/04/23 12:59:00;;;;;;;3.65;1.23;;;;;;;;;;5126723;27;20047;-73
2023/04/23 13:01:28;;;;;;;3.97;1.05;;;;;;;;;;5127298;27;20047;-72
2023/04/23 13:03:55;;;;;;;2.47;0.95;;;;;;;;;;5127144;27;20046;-72
2023/04/23 13:06:25;;;;;;;2.05;0.93;;;;;;;;;;5129750;27;20096;-72
2023/04/23 13:08:54;;;;;;;2.85;1.00;;;;;;;;;;5111898;27;20070;-73
2023/04/23 13:11:23;;;;;;;3.47;0.98;;;;;;;;;;5125796;27;20070;-73
2023/04/23 13:13:50;;;;;;;4.18;1.02;;;;;;;;;;5108119;27;20463;-73
2023/04/23 13:16:18;;;;;;;3.63;0.95;;;;;;;;;;5106112;27;20047;-72
2023/04/23 13:18:45;;;;;;;1.83;0.80;;;;;;;;;;5108798;27;20198;-72
2023/04/23 13:21:12;;;;;;;1.88;0.73;;;;;;;;;;5120566;27;20164;-73
2023/04/23 13:23:41;;;;;;;2.60;0.80;;;;;;;;;;5113883;27;20411;-73
2023/04/23 13:26:08;;;;;;;2.47;0.88;;;;;;;;;;5112700;27;20056;-73
2023/04/23 13:28:36;;;;;;;2.95;1.00;;;;;;;;;;5110440;27;20040;-72
2023/04/23 13:31:03;;;;;;;2.15;0.80;;;;;;;;;;5106674;27;20070;-72
2023/04/23 13:33:31;;;;;;;2.72;1.10;;;;;;;;;;5114909;27;20047;-73
2023/04/23 13:35:58;;;;;;;4.38;1.00;;;;;;;;;;5109817;27;20053;-72
2023/04/23 13:38:26;;;;;;;1.95;0.80;;;;;;;;;;5108166;27;20036;-72
2023/04/23 13:40:55;;;;;;;4.57;0.90;;;;;;;;;;5106143;27;20054;-72
2023/04/23 13:43:22;;;;;;;3.42;0.80;;;;;;;;;;5114095;27;20065;-72
2023/04/23 13:45:49;;;;;;;4.47;0.70;;;;;;;;;;5108917;27;20062;-72
2023/04/23 13:48:17;;;;;;;3.60;0.80;;;;;;;;;;5110691;27;20050;-72
2023/04/23 13:50:44;;;;;;;1.85;0.65;;;;;;;;;;5107198;27;20063;-71
2023/04/23 13:53:12;;;;;;;8.13;1.00;;;;;;;;;;5100591;27;20134;-72
2023/04/23 13:55:39;;;;;;;4.88;1.23;;;;;;;;;;5109939;27;20044;-72
2023/04/23 13:58:08;;;;;;;5.82;1.00;;;;;;;;;;5098174;27;20048;-72
2023/04/23 14:00:35;;;;;;;5.32;1.10;;;;;;;;;;5115116;28;20043;-71
2023/04/23 14:03:03;;;;;;;2.85;1.05;;;;;;;;;;5096958;28;20132;-71
2023/04/23 14:05:31;;;;;;;3.88;0.90;;;;;;;;;;5112888;27;20054;-71
2023/04/23 14:07:58;;;;;;;2.10;0.77;;;;;;;;;;5122778;28;20047;-72
2023/04/23 14:10:25;;;;;;;1.55;0.80;;;;;;;;;;5118193;28;20078;-71
2023/04/23 14:12:53;;;;;;;4.50;0.90;;;;;;;;;;5113940;27;20055;-72
2023/04/23 14:15:22;;;;;;;2.35;1.00;;;;;;;;;;5118299;28;20547;-71
2023/04/23 14:17:49;;;;;;;2.15;0.73;;;;;;;;;;5115140;28;20397;-71
2023/04/23 14:20:18;;;;;;;5.18;1.02;;;;;;;;;;5121207;27;20055;-72
2023/04/23 14:22:49;;;;;;;3.40;1.15;;;;;;;;;;5107495;27;20076;-71
2023/04/23 14:25:24;;;;;;;2.97;1.02;;;;;;;;;;5111859;27;20051;-71
2023/04/23 14:27:52;;;;;;;2.20;0.90;;;;;;;;;;5110204;27;20048;-71